sensor_id;sensor_type;location;lat;lon;timestamp;pressure;altitude;pressure_sealevel;temperature;humidity
3132;BME280;62090;52.330;9.104;2023-03-12T00:02:23;100718.34;;;1.47;84.31
3132;BME280;62090;52.330;9.104;2023-03-12T00:04:52;100682.69;;;1.24;84.73
3132;BME280;62090;52.330;9.104;2023-03-12T00:07:22;100723.09;;;1.42;84.95
3132;BME280;62090;52.330;9.104;2023-03-12T00:09:54;100695.06;;;1.21;84.86
3132;BME280;62090;52.330;9.104;2023-03-12T00:12:24;100691.19;;;1.13;85.55
3132;BME280;62090;52.330;9.104;2023-03-12T00:14:54;100714.59;;;1.27;85.57
3132;BME280;62090;52.330;9.104;2023-03-12T00:17:23;100723.09;;;1.29;85.27
3132;BME280;62090;52.330;9.104;2023-03-12T00:19:53;100725.50;;;1.27;85.79
3132;BME280;62090;52.330;9.104;2023-03-12T00:22:23;100732.28;;;1.28;85.77
3132;BME280;62090;52.330;9.104;2023-03-12T00:24:55;100696.13;;;1.12;85.93
3132;BME280;62090;52.330;9.104;2023-03-12T00:27:25;100729.66;;;1.27;85.83
3132;BME280;62090;52.330;9.104;2023-03-12T00:29:55;100731.72;;;1.19;86.39
3132;BME280;62090;52.330;9.104;2023-03-12T00:32:25;100705.59;;;1.03;86.55
3132;BME280;62090;52.330;9.104;2023-03-12T00:34:55;100733.25;;;1.17;86.55
3132;BME280;62090;52.330;9.104;2023-03-12T00:37:25;100714.56;;;1.12;86.47
3132;BME280;62090;52.330;9.104;2023-03-12T00:39:57;100717.16;;;1.14;86.89
3132;BME280;62090;52.330;9.104;2023-03-12T00:42:27;100732.78;;;1.23;86.74
3132;BME280;62090;52.330;9.104;2023-03-12T00:44:57;100698.81;;;1.15;86.41
3132;BME280;62090;52.330;9.104;2023-03-12T00:47:27;100719.78;;;1.15;86.42
3132;BME280;62090;52.330;9.104;2023-03-12T00:49:57;100701.44;;;1.03;86.15
3132;BME280;62090;52.330;9.104;2023-03-12T00:52:27;100712.06;;;0.99;87.36
3132;BME280;62090;52.330;9.104;2023-03-12T00:54:59;100702.03;;;0.99;87.18
3132;BME280;62090;52.330;9.104;2023-03-12T00:57:29;100690.47;;;0.88;87.23
3132;BME280;62090;52.330;9.104;2023-03-12T00:59:58;100687.28;;;0.91;87.08
3132;BME280;62090;52.330;9.104;2023-03-12T01:02:28;100689.00;;;1.05;87.23
3132;BME280;62090;52.330;9.104;2023-03-12T01:04:58;100676.25;;;1.02;86.53
3132;BME280;62090;52.330;9.104;2023-03-12T01:07:28;100674.53;;;1.01;86.17
3132;BME280;62090;52.330;9.104;2023-03-12T01:10:00;100666.44;;;0.92;86.07
3132;BME280;62090;52.330;9.104;2023-03-12T01:12:30;100676.75;;;0.96;86.54
3132;BME280;62090;52.330;9.104;2023-03-12T01:15:00;100685.16;;;0.97;86.28
3132;BME280;62090;52.330;9.104;2023-03-12T01:17:30;100674.38;;;0.84;86.53
3132;BME280;62090;52.330;9.104;2023-03-12T01:19:59;100685.56;;;0.90;86.25
3132;BME280;62090;52.330;9.104;2023-03-12T01:22:29;100641.50;;;0.67;86.72
3132;BME280;62090;52.330;9.104;2023-03-12T01:25:02;100603.03;;;0.53;86.60
3132;BME280;62090;52.330;9.104;2023-03-12T01:27:32;100689.28;;;1.09;86.66
3132;BME280;62090;52.330;9.104;2023-03-12T01:30:03;100618.91;;;0.80;86.42
3132;BME280;62090;52.330;9.104;2023-03-12T01:32:33;100678.75;;;1.15;85.90
3132;BME280;62090;52.330;9.104;2023-03-12T01:35:03;100610.22;;;0.75;85.56
3132;BME280;62090;52.330;9.104;2023-03-12T01:37:33;100667.31;;;1.05;85.57
3132;BME280;62090;52.330;9.104;2023-03-12T01:40:06;100671.22;;;1.15;85.31
3132;BME280;62090;52.330;9.104;2023-03-12T01:42:36;100653.22;;;0.94;85.32
3132;BME280;62090;52.330;9.104;2023-03-12T01:48:09;100643.69;;;0.89;84.88
3132;BME280;62090;52.330;9.104;2023-03-12T01:50:39;100635.03;;;0.83;84.91
3132;BME280;62090;52.330;9.104;2023-03-12T01:53:09;100636.56;;;0.81;84.78
3132;BME280;62090;52.330;9.104;2023-03-12T01:55:42;100634.59;;;0.91;84.82
3132;BME280;62090;52.330;9.104;2023-03-12T01:58:12;100621.34;;;0.78;84.99
3132;BME280;62090;52.330;9.104;2023-03-12T02:00:43;100644.63;;;0.91;84.68
3132;BME280;62090;52.330;9.104;2023-03-12T02:03:14;100647.53;;;0.97;84.87
3132;BME280;62090;52.330;9.104;2023-03-12T02:05:47;100590.38;;;0.65;84.53
3132;BME280;62090;52.330;9.104;2023-03-12T02:08:19;100642.59;;;0.98;85.31
3132;BME280;62090;52.330;9.104;2023-03-12T02:10:51;100556.28;;;0.54;85.33
3132;BME280;62090;52.330;9.104;2023-03-12T02:13:21;100560.25;;;0.50;85.12
3132;BME280;62090;52.330;9.104;2023-03-12T02:15:51;100646.53;;;1.08;85.00
3132;BME280;62090;52.330;9.104;2023-03-12T02:18:21;100634.97;;;1.10;85.00
3132;BME280;62090;52.330;9.104;2023-03-12T02:20:58;100622.13;;;1.05;84.49
3132;BME280;62090;52.330;9.104;2023-03-12T02:23:36;100624.66;;;1.05;84.77
3132;BME280;62090;52.330;9.104;2023-03-12T02:26:12;100606.34;;;0.93;84.91
3132;BME280;62090;52.330;9.104;2023-03-12T02:28:43;100617.41;;;0.97;84.59
3132;BME280;62090;52.330;9.104;2023-03-12T02:31:15;100632.25;;;1.07;84.28
3132;BME280;62090;52.330;9.104;2023-03-12T02:33:46;100588.91;;;0.81;84.36
3132;BME280;62090;52.330;9.104;2023-03-12T02:36:17;100643.41;;;1.12;84.26
3132;BME280;62090;52.330;9.104;2023-03-12T02:38:48;100623.56;;;1.02;84.17
3132;BME280;62090;52.330;9.104;2023-03-12T02:41:23;100629.16;;;1.11;84.02
3132;BME280;62090;52.330;9.104;2023-03-12T02:43:59;100634.47;;;1.02;83.97
3132;BME280;62090;52.330;9.104;2023-03-12T02:46:33;100611.09;;;0.89;84.58
3132;BME280;62090;52.330;9.104;2023-03-12T02:49:03;100628.31;;;0.97;84.92
3132;BME280;62090;52.330;9.104;2023-03-12T02:51:33;100618.78;;;0.92;85.06
3132;BME280;62090;52.330;9.104;2023-03-12T02:54:04;100604.34;;;0.88;84.77
3132;BME280;62090;52.330;9.104;2023-03-12T02:56:36;100588.47;;;0.74;84.74
3132;BME280;62090;52.330;9.104;2023-03-12T02:59:07;100606.28;;;0.78;85.10
3132;BME280;62090;52.330;9.104;2023-03-12T03:01:41;100616.50;;;0.81;84.94
3132;BME280;62090;52.330;9.104;2023-03-12T03:04:11;100627.00;;;0.89;84.95
3132;BME280;62090;52.330;9.104;2023-03-12T03:06:42;100633.66;;;0.89;85.00
3132;BME280;62090;52.330;9.104;2023-03-12T03:09:14;100618.34;;;0.84;84.61
3132;BME280;62090;52.330;9.104;2023-03-12T03:11:47;100602.44;;;0.83;84.53
3132;BME280;62090;52.330;9.104;2023-03-12T03:14:17;100563.03;;;0.55;84.49
3132;BME280;62090;52.330;9.104;2023-03-12T03:16:49;100609.25;;;0.86;84.26
3132;BME280;62090;52.330;9.104;2023-03-12T03:19:21;100617.91;;;0.91;84.33
3132;BME280;62090;52.330;9.104;2023-03-12T03:21:51;100629.56;;;1.04;84.13
3132;BME280;62090;52.330;9.104;2023-03-12T03:24:21;100627.66;;;1.00;83.76
3132;BME280;62090;52.330;9.104;2023-03-12T03:26:53;100618.28;;;0.97;83.57
3132;BME280;62090;52.330;9.104;2023-03-12T03:29:22;100612.63;;;0.87;83.71
3132;BME280;62090;52.330;9.104;2023-03-12T03:31:52;100611.69;;;0.84;83.81
3132;BME280;62090;52.330;9.104;2023-03-12T03:34:22;100564.88;;;0.57;83.72
3132;BME280;62090;52.330;9.104;2023-03-12T03:36:52;100626.50;;;0.95;83.78
3132;BME280;62090;52.330;9.104;2023-03-12T03:39:22;100458.97;;;-0.08;83.84
3132;BME280;62090;52.330;9.104;2023-03-12T03:41:57;100621.56;;;0.96;84.13
3132;BME280;62090;52.330;9.104;2023-03-12T03:44:29;100546.19;;;0.52;84.07
3132;BME280;62090;52.330;9.104;2023-03-12T03:46:59;100623.69;;;1.03;84.03
3132;BME280;62090;52.330;9.104;2023-03-12T03:49:29;100634.38;;;1.01;83.77
3132;BME280;62090;52.330;9.104;2023-03-12T03:51:59;100583.34;;;0.72;84.08
3132;BME280;62090;52.330;9.104;2023-03-12T03:54:33;100632.84;;;1.03;84.25
3132;BME280;62090;52.330;9.104;2023-03-12T03:57:08;100619.16;;;0.98;83.99
3132;BME280;62090;52.330;9.104;2023-03-12T03:59:38;100623.84;;;1.06;84.27
3132;BME280;62090;52.330;9.104;2023-03-12T04:02:08;100627.44;;;1.10;84.05
3132;BME280;62090;52.330;9.104;2023-03-12T04:04:40;100631.47;;;1.08;84.43
3132;BME280;62090;52.330;9.104;2023-03-12T04:07:09;100630.72;;;1.09;84.23
3132;BME280;62090;52.330;9.104;2023-03-12T04:09:39;100621.72;;;1.12;84.12
3132;BME280;62090;52.330;9.104;2023-03-12T04:12:12;100615.25;;;1.16;84.37
3132;BME280;62090;52.330;9.104;2023-03-12T04:14:42;100616.63;;;1.11;84.60
3132;BME280;62090;52.330;9.104;2023-03-12T04:17:12;100609.94;;;1.11;84.34
3132;BME280;62090;52.330;9.104;2023-03-12T04:19:41;100607.09;;;1.05;84.58
3132;BME280;62090;52.330;9.104;2023-03-12T04:22:11;100609.16;;;1.12;85.05
3132;BME280;62090;52.330;9.104;2023-03-12T04:24:41;100536.06;;;0.78;84.94
3132;BME280;62090;52.330;9.104;2023-03-12T04:27:14;100551.75;;;0.89;84.53
3132;BME280;62090;52.330;9.104;2023-03-12T04:29:43;100591.34;;;1.08;84.51
3132;BME280;62090;52.330;9.104;2023-03-12T04:32:14;100604.72;;;1.21;84.53
3132;BME280;62090;52.330;9.104;2023-03-12T04:34:43;100577.97;;;0.94;84.41
3132;BME280;62090;52.330;9.104;2023-03-12T04:37:15;100587.69;;;1.03;84.68
3132;BME280;62090;52.330;9.104;2023-03-12T04:39:45;100579.75;;;1.10;84.62
3132;BME280;62090;52.330;9.104;2023-03-12T04:42:17;100566.88;;;0.91;84.42
3132;BME280;62090;52.330;9.104;2023-03-12T04:44:49;100572.09;;;0.94;84.87
3132;BME280;62090;52.330;9.104;2023-03-12T04:47:19;100583.81;;;1.08;84.70
3132;BME280;62090;52.330;9.104;2023-03-12T04:49:49;100584.97;;;1.27;84.40
3132;BME280;62090;52.330;9.104;2023-03-12T04:52:18;100582.56;;;1.29;84.11
3132;BME280;62090;52.330;9.104;2023-03-12T04:54:48;100586.91;;;1.32;83.86
3132;BME280;62090;52.330;9.104;2023-03-12T04:57:20;100558.47;;;1.18;83.98
3132;BME280;62090;52.330;9.104;2023-03-12T04:59:51;100559.44;;;1.20;83.78
3132;BME280;62090;52.330;9.104;2023-03-12T05:02:20;100522.94;;;1.10;83.59
3132;BME280;62090;52.330;9.104;2023-03-12T05:04:51;100570.91;;;1.44;83.67
3132;BME280;62090;52.330;9.104;2023-03-12T05:07:21;100574.53;;;1.49;83.45
3132;BME280;62090;52.330;9.104;2023-03-12T05:09:51;100565.25;;;1.48;83.42
3132;BME280;62090;52.330;9.104;2023-03-12T05:12:24;100574.28;;;1.59;83.10
3132;BME280;62090;52.330;9.104;2023-03-12T05:14:53;100576.53;;;1.55;83.03
3132;BME280;62090;52.330;9.104;2023-03-12T05:17:24;100516.03;;;1.21;83.06
3132;BME280;62090;52.330;9.104;2023-03-12T05:19:53;100561.22;;;1.50;83.27
3132;BME280;62090;52.330;9.104;2023-03-12T05:22:24;100554.53;;;1.51;83.14
3132;BME280;62090;52.330;9.104;2023-03-12T05:24:53;100533.25;;;1.44;83.21
3132;BME280;62090;52.330;9.104;2023-03-12T05:27:26;100551.63;;;1.58;82.35
3132;BME280;62090;52.330;9.104;2023-03-12T05:29:58;100556.59;;;1.43;82.09
3132;BME280;62090;52.330;9.104;2023-03-12T05:32:27;100494.47;;;1.10;82.92
3132;BME280;62090;52.330;9.104;2023-03-12T05:34:57;100524.75;;;1.27;82.93
3132;BME280;62090;52.330;9.104;2023-03-12T05:37:27;100517.41;;;1.31;83.06
3132;BME280;62090;52.330;9.104;2023-03-12T05:39:58;100509.69;;;1.27;83.17
3132;BME280;62090;52.330;9.104;2023-03-12T05:42:30;100493.19;;;1.31;83.03
3132;BME280;62090;52.330;9.104;2023-03-12T05:45:01;100548.28;;;1.59;83.23
3132;BME280;62090;52.330;9.104;2023-03-12T05:47:30;100545.72;;;1.57;83.24
3132;BME280;62090;52.330;9.104;2023-03-12T05:50:01;100529.94;;;1.45;83.47
3132;BME280;62090;52.330;9.104;2023-03-12T05:52:30;100525.03;;;1.47;83.41
3132;BME280;62090;52.330;9.104;2023-03-12T05:55:00;100472.41;;;1.19;83.42
3132;BME280;62090;52.330;9.104;2023-03-12T05:57:33;100509.09;;;1.46;83.28
3132;BME280;62090;52.330;9.104;2023-03-12T06:00:03;100444.09;;;1.07;82.73
3132;BME280;62090;52.330;9.104;2023-03-12T06:02:38;100511.09;;;1.37;83.43
3132;BME280;62090;52.330;9.104;2023-03-12T06:05:09;100499.47;;;1.39;83.78
3132;BME280;62090;52.330;9.104;2023-03-12T06:07:39;100512.72;;;1.51;83.50
3132;BME280;62090;52.330;9.104;2023-03-12T06:10:11;100491.19;;;1.40;82.96
3132;BME280;62090;52.330;9.104;2023-03-12T06:12:43;100424.00;;;1.07;82.02
3132;BME280;62090;52.330;9.104;2023-03-12T06:15:13;100494.03;;;1.46;82.33
3132;BME280;62090;52.330;9.104;2023-03-12T06:17:43;100471.00;;;1.39;82.40
3132;BME280;62090;52.330;9.104;2023-03-12T06:20:13;100494.38;;;1.52;82.68
3132;BME280;62090;52.330;9.104;2023-03-12T06:22:43;100496.38;;;1.58;83.03
3132;BME280;62090;52.330;9.104;2023-03-12T06:25:14;100490.91;;;1.65;82.93
3132;BME280;62090;52.330;9.104;2023-03-12T06:27:46;100476.25;;;1.73;83.06
3132;BME280;62090;52.330;9.104;2023-03-12T06:30:16;100487.00;;;1.85;82.84
3132;BME280;62090;52.330;9.104;2023-03-12T06:32:46;100483.84;;;1.89;82.65
3132;BME280;62090;52.330;9.104;2023-03-12T06:35:16;100439.38;;;1.72;82.65
3132;BME280;62090;52.330;9.104;2023-03-12T06:37:45;100466.03;;;1.84;82.84
3132;BME280;62090;52.330;9.104;2023-03-12T06:40:15;100491.44;;;2.05;82.68
3132;BME280;62090;52.330;9.104;2023-03-12T06:42:47;100482.84;;;2.01;82.47
3132;BME280;62090;52.330;9.104;2023-03-12T06:45:17;100485.06;;;2.11;81.60
3132;BME280;62090;52.330;9.104;2023-03-12T06:47:47;100462.69;;;2.00;81.10
3132;BME280;62090;52.330;9.104;2023-03-12T06:50:17;100427.88;;;1.91;81.01
3132;BME280;62090;52.330;9.104;2023-03-12T06:52:46;100456.34;;;2.23;79.59
3132;BME280;62090;52.330;9.104;2023-03-12T06:55:16;100466.03;;;2.31;79.42
3132;BME280;62090;52.330;9.104;2023-03-12T06:57:49;100451.28;;;2.37;79.47
3132;BME280;62090;52.330;9.104;2023-03-12T07:00:19;100482.56;;;2.59;79.43
3132;BME280;62090;52.330;9.104;2023-03-12T07:02:49;100472.81;;;2.65;79.55
3132;BME280;62090;52.330;9.104;2023-03-12T07:05:19;100471.56;;;2.57;79.62
3132;BME280;62090;52.330;9.104;2023-03-12T07:07:48;100441.84;;;2.33;81.22
3132;BME280;62090;52.330;9.104;2023-03-12T07:10:18;100426.84;;;2.35;82.09
3132;BME280;62090;52.330;9.104;2023-03-12T07:12:51;100439.56;;;2.54;82.40
3132;BME280;62090;52.330;9.104;2023-03-12T07:15:20;100460.47;;;2.69;82.45
3132;BME280;62090;52.330;9.104;2023-03-12T07:17:50;100447.50;;;2.62;83.02
3132;BME280;62090;52.330;9.104;2023-03-12T07:20:20;100319.63;;;1.87;83.54
3132;BME280;62090;52.330;9.104;2023-03-12T07:22:49;100465.09;;;2.78;83.56
3132;BME280;62090;52.330;9.104;2023-03-12T07:25:20;100321.59;;;1.92;84.29
3132;BME280;62090;52.330;9.104;2023-03-12T07:27:52;100467.44;;;2.91;83.85
3132;BME280;62090;52.330;9.104;2023-03-12T07:30:22;100439.16;;;2.79;84.19
3132;BME280;62090;52.330;9.104;2023-03-12T07:32:52;100409.78;;;2.62;83.26
3132;BME280;62090;52.330;9.104;2023-03-12T07:35:22;100465.41;;;3.00;81.90
3132;BME280;62090;52.330;9.104;2023-03-12T07:37:52;100446.28;;;3.04;81.56
3132;BME280;62090;52.330;9.104;2023-03-12T07:40:21;100435.94;;;3.15;81.19
3132;BME280;62090;52.330;9.104;2023-03-12T07:42:54;100433.88;;;3.24;80.05
3132;BME280;62090;52.330;9.104;2023-03-12T07:45:24;100454.69;;;3.38;79.56
3132;BME280;62090;52.330;9.104;2023-03-12T07:47:54;100458.81;;;3.54;79.85
3132;BME280;62090;52.330;9.104;2023-03-12T07:50:23;100458.66;;;3.68;79.72
3132;BME280;62090;52.330;9.104;2023-03-12T07:52:53;100440.28;;;3.71;79.48
3132;BME280;62090;52.330;9.104;2023-03-12T07:55:23;100438.56;;;3.88;79.18
3132;BME280;62090;52.330;9.104;2023-03-12T07:57:55;100432.84;;;3.92;77.76
3132;BME280;62090;52.330;9.104;2023-03-12T08:00:25;100434.19;;;3.83;77.42
3132;BME280;62090;52.330;9.104;2023-03-12T08:02:55;100413.09;;;3.64;78.19
3132;BME280;62090;52.330;9.104;2023-03-12T08:05:25;100410.38;;;3.59;77.36
3132;BME280;62090;52.330;9.104;2023-03-12T08:07:55;100413.59;;;3.57;77.68
3132;BME280;62090;52.330;9.104;2023-03-12T08:10:25;100412.16;;;3.44;77.60
3132;BME280;62090;52.330;9.104;2023-03-12T08:12:57;100406.97;;;3.41;78.14
3132;BME280;62090;52.330;9.104;2023-03-12T08:15:27;100436.06;;;3.52;78.30
3132;BME280;62090;52.330;9.104;2023-03-12T08:17:57;100406.91;;;3.39;78.53
3132;BME280;62090;52.330;9.104;2023-03-12T08:20:27;100422.09;;;3.59;77.88
3132;BME280;62090;52.330;9.104;2023-03-12T08:22:57;100426.81;;;3.88;77.71
3132;BME280;62090;52.330;9.104;2023-03-12T08:25:26;100428.53;;;4.07;76.98
3132;BME280;62090;52.330;9.104;2023-03-12T08:27:59;100371.09;;;3.82;76.02
3132;BME280;62090;52.330;9.104;2023-03-12T08:30:29;100414.69;;;4.16;75.60
3132;BME280;62090;52.330;9.104;2023-03-12T08:32:59;100400.56;;;4.02;74.62
3132;BME280;62090;52.330;9.104;2023-03-12T08:35:29;100429.13;;;4.20;75.36
3132;BME280;62090;52.330;9.104;2023-03-12T08:37:59;100444.34;;;4.22;74.21
3132;BME280;62090;52.330;9.104;2023-03-12T08:40:28;100453.03;;;3.92;75.53
3132;BME280;62090;52.330;9.104;2023-03-12T08:43:01;100460.38;;;3.87;76.56
3132;BME280;62090;52.330;9.104;2023-03-12T08:45:30;100455.63;;;3.93;76.95
3132;BME280;62090;52.330;9.104;2023-03-12T08:48:02;100418.06;;;3.80;76.75
3132;BME280;62090;52.330;9.104;2023-03-12T08:50:31;100444.00;;;4.14;75.97
3132;BME280;62090;52.330;9.104;2023-03-12T08:53:01;100432.16;;;4.13;76.23
3132;BME280;62090;52.330;9.104;2023-03-12T08:55:31;100456.22;;;4.24;75.92
3132;BME280;62090;52.330;9.104;2023-03-12T08:58:03;100392.50;;;4.09;76.15
3132;BME280;62090;52.330;9.104;2023-03-12T09:00:33;100453.44;;;4.57;76.28
3132;BME280;62090;52.330;9.104;2023-03-12T09:03:02;100415.16;;;4.46;76.17
3132;BME280;62090;52.330;9.104;2023-03-12T09:05:32;100444.50;;;4.63;75.45
3132;BME280;62090;52.330;9.104;2023-03-12T09:08:02;100461.84;;;4.75;75.61
3132;BME280;62090;52.330;9.104;2023-03-12T09:10:31;100452.19;;;4.66;74.23
3132;BME280;62090;52.330;9.104;2023-03-12T09:13:04;100450.56;;;4.88;73.43
3132;BME280;62090;52.330;9.104;2023-03-12T09:15:34;100392.09;;;4.58;70.80
3132;BME280;62090;52.330;9.104;2023-03-12T09:18:04;100377.03;;;4.59;69.11
3132;BME280;62090;52.330;9.104;2023-03-12T09:20:36;100431.63;;;4.97;71.04
3132;BME280;62090;52.330;9.104;2023-03-12T09:23:06;100403.44;;;5.07;71.05
3132;BME280;62090;52.330;9.104;2023-03-12T09:25:36;100410.41;;;5.34;70.80
3132;BME280;62090;52.330;9.104;2023-03-12T09:28:08;100415.72;;;5.62;69.90
3132;BME280;62090;52.330;9.104;2023-03-12T09:30:40;100375.88;;;5.55;69.81
3132;BME280;62090;52.330;9.104;2023-03-12T09:33:10;100411.03;;;5.92;70.13
3132;BME280;62090;52.330;9.104;2023-03-12T09:35:41;100395.41;;;6.04;68.93
3132;BME280;62090;52.330;9.104;2023-03-12T09:38:12;100378.66;;;6.06;68.18
3132;BME280;62090;52.330;9.104;2023-03-12T09:40:45;100359.13;;;6.02;69.08
3132;BME280;62090;52.330;9.104;2023-03-12T09:43:23;100335.53;;;5.80;70.14
3132;BME280;62090;52.330;9.104;2023-03-12T09:45:56;100345.81;;;5.63;70.51
3132;BME280;62090;52.330;9.104;2023-03-12T09:48:30;100342.50;;;5.64;71.00
3132;BME280;62090;52.330;9.104;2023-03-12T09:51:04;100334.28;;;5.69;69.98
3132;BME280;62090;52.330;9.104;2023-03-12T09:53:38;100355.63;;;5.77;69.20
3132;BME280;62090;52.330;9.104;2023-03-12T09:56:14;100338.16;;;5.61;70.14
3132;BME280;62090;52.330;9.104;2023-03-12T09:58:48;100354.38;;;5.44;71.01
3132;BME280;62090;52.330;9.104;2023-03-12T10:01:36;100312.03;;;5.16;70.45
3132;BME280;62090;52.330;9.104;2023-03-12T10:04:17;100347.38;;;5.16;72.03
3132;BME280;62090;52.330;9.104;2023-03-12T10:06:52;100348.13;;;5.14;72.95
3132;BME280;62090;52.330;9.104;2023-03-12T10:09:35;100319.28;;;5.08;72.76
3132;BME280;62090;52.330;9.104;2023-03-12T10:12:16;100311.53;;;5.04;73.48
3132;BME280;62090;52.330;9.104;2023-03-12T10:15:01;100310.78;;;5.27;72.59
3132;BME280;62090;52.330;9.104;2023-03-12T10:17:46;100323.31;;;5.69;73.58
3132;BME280;62090;52.330;9.104;2023-03-12T10:20:32;100299.31;;;5.58;73.87
3132;BME280;62090;52.330;9.104;2023-03-12T10:23:07;100299.47;;;5.62;74.18
3132;BME280;62090;52.330;9.104;2023-03-12T10:25:42;100307.84;;;5.61;74.52
3132;BME280;62090;52.330;9.104;2023-03-12T10:28:16;100317.00;;;5.58;75.37
3132;BME280;62090;52.330;9.104;2023-03-12T10:30:53;100278.34;;;5.16;76.60
3132;BME280;62090;52.330;9.104;2023-03-12T10:33:36;100282.53;;;5.15;76.82
3132;BME280;62090;52.330;9.104;2023-03-12T10:36:13;100307.13;;;4.98;80.05
3132;BME280;62090;52.330;9.104;2023-03-12T10:38:45;100284.47;;;4.79;81.60
3132;BME280;62090;52.330;9.104;2023-03-12T10:41:17;100310.06;;;4.67;84.04
3132;BME280;62090;52.330;9.104;2023-03-12T10:43:47;100319.94;;;4.82;85.04
3132;BME280;62090;52.330;9.104;2023-03-12T10:49:30;100297.09;;;4.58;87.27
3132;BME280;62090;52.330;9.104;2023-03-12T10:52:03;100305.91;;;4.68;87.79
3132;BME280;62090;52.330;9.104;2023-03-12T10:54:35;100305.63;;;4.62;88.59
3132;BME280;62090;52.330;9.104;2023-03-12T10:57:07;100320.69;;;4.80;88.29
3132;BME280;62090;52.330;9.104;2023-03-12T10:59:38;100317.84;;;4.72;88.35
3132;BME280;62090;52.330;9.104;2023-03-12T11:02:31;100313.72;;;4.53;90.54
3132;BME280;62090;52.330;9.104;2023-03-12T11:05:18;100257.25;;;4.31;91.20
3132;BME280;62090;52.330;9.104;2023-03-12T11:07:48;100281.03;;;4.56;91.30
3132;BME280;62090;52.330;9.104;2023-03-12T11:10:22;100285.78;;;4.70;91.32
3132;BME280;62090;52.330;9.104;2023-03-12T11:13:01;100295.44;;;4.80;91.34
3132;BME280;62090;52.330;9.104;2023-03-12T11:15:38;100271.38;;;4.67;92.11
3132;BME280;62090;52.330;9.104;2023-03-12T11:18:32;100272.78;;;4.60;94.50
3132;BME280;62090;52.330;9.104;2023-03-12T11:21:17;100246.06;;;4.45;96.55
3132;BME280;62090;52.330;9.104;2023-03-12T11:24:05;100258.06;;;4.71;97.03
3132;BME280;62090;52.330;9.104;2023-03-12T11:26:47;100256.13;;;4.64;96.04
3132;BME280;62090;52.330;9.104;2023-03-12T11:29:25;100243.69;;;4.68;96.90
3132;BME280;62090;52.330;9.104;2023-03-12T11:32:01;100229.16;;;4.21;98.93
3132;BME280;62090;52.330;9.104;2023-03-12T11:34:34;100234.22;;;4.23;100.00
3132;BME280;62090;52.330;9.104;2023-03-12T11:37:11;100245.09;;;4.41;100.00
3132;BME280;62090;52.330;9.104;2023-03-12T11:39:58;100229.00;;;4.18;100.00
3132;BME280;62090;52.330;9.104;2023-03-12T11:42:45;100238.50;;;4.45;100.00
3132;BME280;62090;52.330;9.104;2023-03-12T11:45:24;100245.41;;;4.49;100.00
3132;BME280;62090;52.330;9.104;2023-03-12T11:48:07;100223.34;;;4.45;100.00
3132;BME280;62090;52.330;9.104;2023-03-12T11:50:48;100228.84;;;4.35;100.00
3132;BME280;62090;52.330;9.104;2023-03-12T11:53:44;100246.75;;;4.41;100.00
3132;BME280;62090;52.330;9.104;2023-03-12T11:56:26;100233.75;;;4.11;100.00
3132;BME280;62090;52.330;9.104;2023-03-12T11:59:04;100233.63;;;4.29;100.00
3132;BME280;62090;52.330;9.104;2023-03-12T12:01:52;100224.91;;;4.20;100.00
3132;BME280;62090;52.330;9.104;2023-03-12T12:07:35;100216.47;;;4.20;100.00
3132;BME280;62090;52.330;9.104;2023-03-12T12:10:19;100198.44;;;4.11;100.00
3132;BME280;62090;52.330;9.104;2023-03-12T12:12:56;100179.31;;;3.95;100.00
3132;BME280;62090;52.330;9.104;2023-03-12T12:15:34;100179.31;;;3.76;100.00
3132;BME280;62090;52.330;9.104;2023-03-12T12:18:28;100125.59;;;3.56;100.00
3132;BME280;62090;52.330;9.104;2023-03-12T12:21:07;100186.28;;;4.01;100.00
3132;BME280;62090;52.330;9.104;2023-03-12T12:23:48;100199.44;;;4.14;100.00
3132;BME280;62090;52.330;9.104;2023-03-12T12:26:29;100160.56;;;3.89;100.00
3132;BME280;62090;52.330;9.104;2023-03-12T12:29:16;100145.78;;;3.77;100.00
3132;BME280;62090;52.330;9.104;2023-03-12T12:31:52;100107.53;;;3.66;100.00
3132;BME280;62090;52.330;9.104;2023-03-12T12:34:44;100162.53;;;4.16;100.00
3132;BME280;62090;52.330;9.104;2023-03-12T12:37:40;100128.59;;;3.88;100.00
3132;BME280;62090;52.330;9.104;2023-03-12T12:40:19;100127.91;;;3.92;100.00
3132;BME280;62090;52.330;9.104;2023-03-12T12:43:01;100163.63;;;4.02;100.00
3132;BME280;62090;52.330;9.104;2023-03-12T12:45:32;100165.59;;;3.89;100.00
3132;BME280;62090;52.330;9.104;2023-03-12T12:48:05;100143.19;;;3.75;100.00
3132;BME280;62090;52.330;9.104;2023-03-12T12:50:38;100166.72;;;3.95;100.00
3132;BME280;62090;52.330;9.104;2023-03-12T12:53:14;100141.97;;;3.87;100.00
3132;BME280;62090;52.330;9.104;2023-03-12T12:55:58;100146.41;;;3.92;100.00
3132;BME280;62090;52.330;9.104;2023-03-12T12:58:45;100160.50;;;4.08;100.00
3132;BME280;62090;52.330;9.104;2023-03-12T13:01:20;99965.69;;;3.05;100.00
3132;BME280;62090;52.330;9.104;2023-03-12T13:03:58;100097.53;;;3.89;100.00
3132;BME280;62090;52.330;9.104;2023-03-12T13:06:56;100145.97;;;4.23;100.00
3132;BME280;62090;52.330;9.104;2023-03-12T13:09:36;100104.75;;;4.00;100.00
3132;BME280;62090;52.330;9.104;2023-03-12T13:12:13;100109.53;;;4.15;100.00
3132;BME280;62090;52.330;9.104;2023-03-12T13:14:46;100130.81;;;4.21;100.00
3132;BME280;62090;52.330;9.104;2023-03-12T13:17:22;100134.91;;;4.19;100.00
3132;BME280;62090;52.330;9.104;2023-03-12T13:19:58;100076.59;;;3.90;100.00
3132;BME280;62090;52.330;9.104;2023-03-12T13:22:54;100075.84;;;3.92;100.00
3132;BME280;62090;52.330;9.104;2023-03-12T13:25:39;100128.75;;;4.34;100.00
3132;BME280;62090;52.330;9.104;2023-03-12T13:28:29;100126.47;;;4.40;100.00
3132;BME280;62090;52.330;9.104;2023-03-12T13:31:36;100108.09;;;4.42;100.00
3132;BME280;62090;52.330;9.104;2023-03-12T13:34:31;100123.25;;;4.64;100.00
3132;BME280;62090;52.330;9.104;2023-03-12T13:37:02;100077.66;;;4.38;100.00
3132;BME280;62090;52.330;9.104;2023-03-12T13:39:33;100093.06;;;4.67;100.00
3132;BME280;62090;52.330;9.104;2023-03-12T13:45:21;100116.97;;;4.77;100.00
3132;BME280;62090;52.330;9.104;2023-03-12T13:47:57;100114.44;;;4.77;100.00
3132;BME280;62090;52.330;9.104;2023-03-12T13:50:29;100081.22;;;4.65;100.00
3132;BME280;62090;52.330;9.104;2023-03-12T13:53:02;100101.81;;;4.99;100.00
3132;BME280;62090;52.330;9.104;2023-03-12T13:55:35;100081.53;;;4.96;100.00